createdAt,value
2023-03-10T00:01:50.712Z,3.57
2023-03-10T00:04:17.027Z,3.53
2023-03-10T00:06:43.477Z,3.52
2023-03-10T00:09:12.169Z,3.52
2023-03-10T00:11:38.471Z,3.55
2023-03-10T00:14:05.288Z,3.56
2023-03-10T00:16:34.456Z,3.53
2023-03-10T00:19:00.771Z,3.52
2023-03-10T00:21:28.370Z,3.51
2023-03-10T00:23:54.886Z,3.52
2023-03-10T00:26:21.616Z,3.49
2023-03-10T00:28:48.426Z,3.50
2023-03-10T00:31:16.596Z,3.50
2023-03-10T00:33:43.194Z,3.49
2023-03-10T00:36:17.398Z,3.49
2023-03-10T00:38:44.357Z,3.51
2023-03-10T00:41:12.191Z,3.53
2023-03-10T00:43:38.638Z,3.58
2023-03-10T00:46:05.676Z,3.59
2023-03-10T00:48:32.494Z,3.64
2023-03-10T00:50:59.619Z,3.68
2023-03-10T00:53:25.972Z,3.71
2023-03-10T00:55:59.330Z,3.72
2023-03-10T00:58:25.635Z,3.72
2023-03-10T01:00:51.996Z,3.71
2023-03-10T01:03:18.296Z,3.74
2023-03-10T01:05:45.306Z,3.72
2023-03-10T01:08:11.622Z,3.70
2023-03-10T01:10:37.952Z,3.59
2023-03-10T01:13:04.327Z,3.73
2023-03-10T01:15:30.610Z,3.72
2023-03-10T01:17:56.928Z,3.73
2023-03-10T01:20:23.195Z,3.72
2023-03-10T01:22:50.859Z,3.71
2023-03-10T01:25:17.176Z,3.69
2023-03-10T01:27:43.525Z,3.66
2023-03-10T01:30:10.641Z,3.65
2023-03-10T01:32:38.347Z,3.67
2023-03-10T01:35:05.450Z,3.71
2023-03-10T01:37:31.875Z,3.74
2023-03-10T01:39:58.227Z,3.73
2023-03-10T01:42:24.608Z,3.73
2023-03-10T01:45:04.193Z,3.74
2023-03-10T01:47:30.584Z,3.66
2023-03-10T01:49:57.247Z,3.63
2023-03-10T01:52:25.018Z,3.65
2023-03-10T01:54:54.926Z,3.64
2023-03-10T01:57:26.714Z,3.62
2023-03-10T02:18:48.396Z,3.48
2023-03-10T02:21:17.675Z,3.55
2023-03-10T02:23:51.385Z,3.57
2023-03-10T02:26:25.481Z,3.57
2023-03-10T02:28:54.038Z,3.60
2023-03-10T02:31:22.150Z,3.60
2023-03-10T02:33:52.159Z,3.59
2023-03-10T02:36:22.613Z,3.64
2023-03-10T02:38:49.274Z,3.63
2023-03-10T02:41:32.286Z,3.62
2023-03-10T02:44:00.171Z,3.59
2023-03-10T02:46:26.674Z,3.60
2023-03-10T02:48:53.014Z,3.65
2023-03-10T02:51:24.503Z,3.66
2023-03-10T02:53:50.842Z,3.68
2023-03-10T02:56:17.255Z,3.65
2023-03-10T02:58:43.613Z,3.67
2023-03-10T03:01:10.115Z,3.69
2023-03-10T03:03:36.657Z,3.72
2023-03-10T03:06:03.121Z,3.74
2023-03-10T03:08:29.723Z,3.66
2023-03-10T03:10:58.340Z,3.78
2023-03-10T03:13:25.042Z,3.77
2023-03-10T03:15:51.476Z,3.76
2023-03-10T03:18:17.902Z,3.79
2023-03-10T03:20:44.586Z,3.83
2023-03-10T03:23:10.924Z,3.83
2023-03-10T03:25:38.708Z,3.84
2023-03-10T03:28:06.053Z,3.86
2023-03-10T03:30:32.618Z,3.86
2023-03-10T03:32:58.980Z,3.85
2023-03-10T03:35:27.454Z,3.86
2023-03-10T03:37:54.363Z,3.86
2023-03-10T03:40:21.265Z,3.87
2023-03-10T03:42:49.213Z,3.85
2023-03-10T03:45:16.753Z,3.84
2023-03-10T03:47:43.191Z,3.81
2023-03-10T03:50:10.767Z,3.80
2023-03-10T03:52:37.126Z,3.81
2023-03-10T03:55:04.224Z,3.84
2023-03-10T03:57:30.584Z,3.86
2023-03-10T03:59:56.930Z,3.84
2023-03-10T04:02:23.380Z,3.83
2023-03-10T04:04:49.817Z,3.83
2023-03-10T04:07:16.966Z,3.84
2023-03-10T04:09:43.455Z,3.88
2023-03-10T04:12:10.187Z,3.87
2023-03-10T04:14:36.623Z,3.87
2023-03-10T04:17:03.451Z,3.88
2023-03-10T04:19:30.014Z,3.85
2023-03-10T04:21:56.340Z,3.83
2023-03-10T04:24:22.711Z,3.79
2023-03-10T04:26:49.065Z,3.77
2023-03-10T04:29:15.488Z,3.75
2023-03-10T04:31:41.880Z,3.77
2023-03-10T04:34:08.504Z,3.78
2023-03-10T04:36:35.021Z,3.68
2023-03-10T04:39:01.428Z,3.75
2023-03-10T04:41:27.767Z,3.73
2023-03-10T04:43:54.047Z,3.71
2023-03-10T04:46:20.457Z,3.70
2023-03-10T04:48:47.773Z,3.70
2023-03-10T04:51:14.118Z,3.68
2023-03-10T04:53:42.571Z,3.68
2023-03-10T04:56:09.109Z,3.71
2023-03-10T04:58:39.814Z,3.72
2023-03-10T05:01:15.729Z,3.73
2023-03-10T05:03:42.175Z,3.75
2023-03-10T05:06:15.959Z,3.69
2023-03-10T05:08:42.310Z,3.68
2023-03-10T05:11:09.272Z,3.65
2023-03-10T05:13:38.125Z,3.63
2023-03-10T05:16:04.602Z,3.62
2023-03-10T05:18:31.018Z,3.63
2023-03-10T05:21:00.036Z,3.61
2023-03-10T05:23:26.960Z,3.52
2023-03-10T05:25:56.398Z,3.50
2023-03-10T05:28:23.863Z,3.49
2023-03-10T05:30:50.185Z,3.51
2023-03-10T05:33:16.786Z,3.50
2023-03-10T05:35:43.118Z,3.48
2023-03-10T05:38:09.444Z,3.47
2023-03-10T05:40:36.594Z,3.50
2023-03-10T05:43:02.956Z,3.52
2023-03-10T05:45:29.266Z,3.49
2023-03-10T05:47:55.604Z,3.50
2023-03-10T05:50:21.930Z,3.52
2023-03-10T05:52:48.216Z,3.57
2023-03-10T05:55:16.623Z,3.62
2023-03-10T05:57:43.075Z,3.67
2023-03-10T06:00:10.385Z,3.65
2023-03-10T06:02:38.924Z,3.63
2023-03-10T06:05:06.087Z,3.62
2023-03-10T06:07:32.948Z,3.58
2023-03-10T06:09:59.569Z,3.56
2023-03-10T06:12:25.891Z,3.53
2023-03-10T06:14:52.435Z,3.55
2023-03-10T06:17:19.822Z,3.54
2023-03-10T06:19:46.279Z,3.51
2023-03-10T06:22:12.604Z,3.47
2023-03-10T06:24:39.073Z,3.33
2023-03-10T06:27:05.582Z,3.44
2023-03-10T06:29:31.916Z,3.43
2023-03-10T06:31:58.258Z,3.42
2023-03-10T06:34:24.935Z,3.40
2023-03-10T06:36:51.276Z,3.40
2023-03-10T06:39:17.624Z,3.36
2023-03-10T06:41:43.899Z,3.33
2023-03-10T06:44:10.183Z,3.37
2023-03-10T06:46:36.531Z,3.41
2023-03-10T06:49:02.858Z,3.43
2023-03-10T06:51:29.186Z,3.42
2023-03-10T06:53:57.686Z,3.42
2023-03-10T06:56:24.335Z,3.36
2023-03-10T06:58:50.736Z,3.32
2023-03-10T07:01:23.281Z,3.32
2023-03-10T07:03:49.657Z,3.29
2023-03-10T07:06:15.919Z,3.26
2023-03-10T07:08:42.253Z,3.34
2023-03-10T07:11:09.278Z,3.35
2023-03-10T07:13:35.541Z,3.32
2023-03-10T07:16:02.126Z,3.30
2023-03-10T07:18:29.599Z,3.33
2023-03-10T07:20:56.499Z,3.33
2023-03-10T07:23:23.725Z,3.30
2023-03-10T07:25:54.514Z,3.34
2023-03-10T07:28:20.814Z,3.40
2023-03-10T07:30:47.202Z,3.42
2023-03-10T07:33:13.771Z,3.45
2023-03-10T07:35:40.187Z,3.50
2023-03-10T07:38:06.970Z,3.52
2023-03-10T07:40:33.310Z,3.52
2023-03-10T07:42:59.888Z,3.52
2023-03-10T07:45:27.378Z,3.58
2023-03-10T07:47:54.096Z,3.60
2023-03-10T07:50:20.964Z,3.60
2023-03-10T07:52:47.866Z,3.58
2023-03-10T07:55:14.157Z,3.55
2023-03-10T07:57:40.564Z,3.48
2023-03-10T08:00:07.297Z,3.48
2023-03-10T08:02:33.642Z,3.47
2023-03-10T08:04:59.996Z,3.50
2023-03-10T08:07:27.617Z,3.53
2023-03-10T08:09:54.588Z,3.48
2023-03-10T08:12:21.611Z,3.62
2023-03-10T08:14:48.407Z,3.65
2023-03-10T08:17:14.771Z,3.64
2023-03-10T08:19:41.094Z,3.65
2023-03-10T08:22:07.450Z,3.68
2023-03-10T08:24:33.780Z,3.72
2023-03-10T08:27:00.153Z,3.74
2023-03-10T08:29:26.515Z,3.78
2023-03-10T08:31:52.820Z,3.80
2023-03-10T08:34:19.216Z,3.82
2023-03-10T08:36:45.620Z,3.83
2023-03-10T08:39:12.572Z,3.84
2023-03-10T08:41:45.974Z,3.86
2023-03-10T08:44:15.358Z,3.88
2023-03-10T08:46:45.285Z,3.87
2023-03-10T08:49:13.442Z,3.87
2023-03-10T08:51:40.130Z,3.91
2023-03-10T08:54:07.214Z,3.93
2023-03-10T08:56:33.556Z,3.95
2023-03-10T08:59:00.843Z,3.99
2023-03-10T09:01:28.460Z,4.00
2023-03-10T09:03:55.227Z,4.03
2023-03-10T09:06:21.636Z,4.03
2023-03-10T09:08:50.776Z,3.99
2023-03-10T09:11:19.188Z,4.00
2023-03-10T09:13:47.758Z,4.01
2023-03-10T09:16:14.957Z,4.05
2023-03-10T09:18:41.582Z,4.01
2023-03-10T09:21:08.789Z,4.01
2023-03-10T09:23:35.059Z,3.97
2023-03-10T09:26:01.562Z,3.98
2023-03-10T09:28:27.909Z,4.00
2023-03-10T09:30:54.993Z,3.98
2023-03-10T09:33:21.992Z,3.99
2023-03-10T09:36:05.027Z,3.98
2023-03-10T09:38:33.625Z,3.94
2023-03-10T09:41:19.053Z,3.90
2023-03-10T09:43:53.151Z,3.87
2023-03-10T09:46:23.062Z,3.86
2023-03-10T09:49:04.856Z,3.82
2023-03-10T09:51:31.631Z,3.81
2023-03-10T09:54:16.359Z,3.83
2023-03-10T09:56:42.676Z,3.82
2023-03-10T09:59:14.922Z,3.80
2023-03-10T10:01:44.267Z,3.78
2023-03-10T10:04:12.480Z,3.81
2023-03-10T10:06:40.222Z,3.82
2023-03-10T10:09:17.536Z,3.84
2023-03-10T10:11:43.868Z,3.86
2023-03-10T10:14:27.911Z,3.87
2023-03-10T10:17:13.767Z,3.89
2023-03-10T10:19:40.967Z,3.94
2023-03-10T10:22:15.523Z,3.97
2023-03-10T10:24:47.647Z,4.03
2023-03-10T10:27:18.287Z,4.09
2023-03-10T10:29:47.142Z,4.13
2023-03-10T10:32:14.538Z,4.14
2023-03-10T10:34:42.114Z,4.17
2023-03-10T10:37:26.779Z,4.20
2023-03-10T10:39:54.459Z,4.22
2023-03-10T10:42:31.803Z,4.19
2023-03-10T10:44:59.718Z,4.16
2023-03-10T10:47:29.000Z,4.16
2023-03-10T10:49:56.630Z,4.16
2023-03-10T10:52:24.261Z,4.15
2023-03-10T10:54:57.839Z,4.11
2023-03-10T10:57:30.119Z,4.12
2023-03-10T11:00:13.457Z,4.11
2023-03-10T11:02:39.792Z,4.11
2023-03-10T11:05:11.943Z,4.08
2023-03-10T11:07:38.308Z,4.06
2023-03-10T11:10:14.584Z,4.11
2023-03-10T11:12:59.548Z,4.11
2023-03-10T11:15:31.548Z,4.13
2023-03-10T11:18:06.864Z,4.17
2023-03-10T11:20:36.964Z,4.19
2023-03-10T11:23:11.473Z,4.20
2023-03-10T11:25:46.310Z,4.21
2023-03-10T11:28:28.137Z,4.21
2023-03-10T11:31:00.297Z,4.22
2023-03-10T11:33:43.557Z,4.26
2023-03-10T11:36:16.043Z,4.29
2023-03-10T11:38:48.505Z,4.28
2023-03-10T11:41:14.842Z,4.27
2023-03-10T11:43:41.193Z,4.24
2023-03-10T11:46:15.514Z,4.22
2023-03-10T11:48:48.860Z,4.19
2023-03-10T11:51:31.093Z,4.20
2023-03-10T11:53:58.947Z,4.21
2023-03-10T11:56:26.751Z,4.21
2023-03-10T11:59:11.725Z,4.19
2023-03-10T12:02:07.392Z,4.18
2023-03-10T12:04:33.911Z,4.13
2023-03-10T12:07:06.623Z,4.10
2023-03-10T12:09:40.384Z,4.11
2023-03-10T12:12:07.477Z,4.07
2023-03-10T12:14:34.714Z,4.03
2023-03-10T12:17:02.148Z,4.00
2023-03-10T12:19:28.447Z,3.98
2023-03-10T12:22:15.055Z,4.00
2023-03-10T12:24:43.410Z,3.94
2023-03-10T12:27:09.723Z,3.92
2023-03-10T12:29:37.565Z,3.95
2023-03-10T12:32:06.744Z,3.97
2023-03-10T12:34:33.225Z,3.94
2023-03-10T12:37:02.556Z,3.90
2023-03-10T12:39:28.851Z,3.90
2023-03-10T12:41:56.069Z,3.95
2023-03-10T12:44:22.421Z,3.99
2023-03-10T12:46:55.886Z,3.97
2023-03-10T12:49:22.346Z,3.95
2023-03-10T12:51:53.360Z,3.95
2023-03-10T12:54:38.329Z,4.01
2023-03-10T12:57:09.122Z,4.07
2023-03-10T12:59:42.295Z,4.08
2023-03-10T13:02:20.918Z,4.06
2023-03-10T13:04:47.288Z,4.04
2023-03-10T13:07:15.293Z,4.02
2023-03-10T13:09:43.609Z,3.99
2023-03-10T13:12:30.895Z,3.96
2023-03-10T13:14:58.580Z,3.96
2023-03-10T13:17:26.987Z,3.89
2023-03-10T13:20:05.685Z,3.91
2023-03-10T13:22:33.008Z,3.90
2023-03-10T13:25:01.108Z,3.92
2023-03-10T13:27:30.114Z,3.94
2023-03-10T13:30:02.585Z,3.91
2023-03-10T13:32:31.630Z,3.81
2023-03-10T13:34:58.795Z,3.77
2023-03-10T13:37:25.502Z,3.73
2023-03-10T13:39:52.316Z,3.60
2023-03-10T13:42:40.837Z,3.46
2023-03-10T13:45:34.112Z,3.44
2023-03-10T13:48:02.931Z,3.37
2023-03-10T13:50:29.421Z,3.35
2023-03-10T13:52:57.816Z,3.32
2023-03-10T13:55:24.810Z,3.28
2023-03-10T13:57:51.636Z,3.25
2023-03-10T14:00:22.645Z,3.24
2023-03-10T14:02:50.620Z,3.22
2023-03-10T14:05:35.962Z,3.19
2023-03-10T14:08:02.499Z,3.16
2023-03-10T14:10:29.428Z,3.09
2023-03-10T14:12:55.922Z,3.09
2023-03-10T14:15:24.302Z,3.06
2023-03-10T14:17:51.974Z,3.03
2023-03-10T14:20:25.439Z,2.97
2023-03-10T14:22:51.951Z,2.91
2023-03-10T14:25:23.251Z,2.81
2023-03-10T14:27:52.376Z,2.76
2023-03-10T14:30:20.828Z,2.73
2023-03-10T14:32:50.005Z,2.70
2023-03-10T14:35:17.417Z,2.66
2023-03-10T14:37:43.780Z,2.63
2023-03-10T14:40:10.886Z,2.58
2023-03-10T14:42:39.706Z,2.57
2023-03-10T14:45:23.094Z,2.57
2023-03-10T14:47:49.842Z,2.50
2023-03-10T14:50:18.110Z,2.41
2023-03-10T14:52:44.444Z,2.36
2023-03-10T14:55:11.173Z,2.37
2023-03-10T14:57:44.758Z,2.31
2023-03-10T15:00:12.634Z,2.24
2023-03-10T15:02:38.909Z,2.19
2023-03-10T15:05:05.391Z,2.14
2023-03-10T15:07:31.767Z,2.11
2023-03-10T15:10:10.661Z,2.11
2023-03-10T15:12:37.631Z,2.07
2023-03-10T15:15:04.286Z,2.09
2023-03-10T15:17:30.660Z,2.08
2023-03-10T15:19:56.978Z,2.09
2023-03-10T15:22:23.250Z,2.09
2023-03-10T15:24:49.522Z,2.08
2023-03-10T15:27:15.954Z,2.09
2023-03-10T15:29:42.338Z,2.12
2023-03-10T15:32:11.934Z,2.18
2023-03-10T15:34:38.365Z,2.22
2023-03-10T15:37:07.405Z,2.20
2023-03-10T15:39:36.551Z,2.16
2023-03-10T15:42:03.606Z,2.17
2023-03-10T15:44:29.949Z,2.14
2023-03-10T15:46:56.444Z,2.08
2023-03-10T15:49:23.182Z,2.03
2023-03-10T15:51:49.516Z,1.98
2023-03-10T15:54:15.862Z,1.96
2023-03-10T15:56:42.199Z,1.94
2023-03-10T15:59:08.742Z,1.89
2023-03-10T16:01:35.149Z,1.86
2023-03-10T16:04:05.583Z,1.84
2023-03-10T16:06:37.535Z,1.83
2023-03-10T16:09:04.528Z,1.80
2023-03-10T16:11:30.846Z,1.79
2023-03-10T16:13:57.133Z,1.74
2023-03-10T16:16:23.836Z,1.72
2023-03-10T16:18:50.602Z,1.68
2023-03-10T16:21:18.140Z,1.67
2023-03-10T16:23:44.591Z,1.63
2023-03-10T16:26:16.777Z,1.64
2023-03-10T16:28:44.502Z,1.65
2023-03-10T16:31:12.060Z,1.69
2023-03-10T16:33:38.746Z,1.70
2023-03-10T16:36:07.439Z,1.65
2023-03-10T16:38:34.710Z,1.68
2023-03-10T16:41:01.573Z,1.70
2023-03-10T16:43:28.654Z,1.66
2023-03-10T16:46:03.849Z,1.71
2023-03-10T16:48:30.352Z,1.73
2023-03-10T16:50:56.697Z,1.75
2023-03-10T16:53:23.019Z,1.78
2023-03-10T16:55:49.324Z,1.83
2023-03-10T16:58:15.650Z,1.86
2023-03-10T17:00:42.175Z,1.88
2023-03-10T17:03:08.650Z,1.90
2023-03-10T17:05:34.983Z,1.95
2023-03-10T17:08:05.830Z,1.96
2023-03-10T17:10:32.197Z,1.95
2023-03-10T17:12:58.543Z,1.99
2023-03-10T17:15:24.858Z,2.03
2023-03-10T17:17:51.230Z,2.05
2023-03-10T17:20:18.399Z,2.07
2023-03-10T17:22:44.688Z,2.03
2023-03-10T17:25:12.527Z,2.02
2023-03-10T17:27:38.845Z,2.08
2023-03-10T17:30:05.488Z,2.22
2023-03-10T17:32:31.789Z,2.35
2023-03-10T17:34:58.294Z,2.31
2023-03-10T17:37:24.679Z,2.24
2023-03-10T17:39:51.100Z,2.22
2023-03-10T17:42:17.494Z,2.25
2023-03-10T17:44:43.748Z,2.26
2023-03-10T17:47:10.236Z,2.22
2023-03-10T17:49:36.638Z,2.26
2023-03-10T17:52:03.092Z,2.26
2023-03-10T17:54:29.457Z,2.27
2023-03-10T17:56:55.886Z,2.29
2023-03-10T17:59:22.221Z,2.29
2023-03-10T18:01:49.962Z,2.27
2023-03-10T18:04:16.362Z,2.26
2023-03-10T18:06:42.956Z,2.18
2023-03-10T18:09:11.902Z,2.18
2023-03-10T18:11:38.248Z,2.17
2023-03-10T18:14:05.334Z,2.15
2023-03-10T18:16:33.367Z,2.15
2023-03-10T18:19:00.217Z,2.19
2023-03-10T18:21:27.074Z,2.20
2023-03-10T18:23:54.259Z,2.19
2023-03-10T18:26:25.058Z,2.15
2023-03-10T18:28:51.697Z,2.15
2023-03-10T18:31:19.659Z,2.11
2023-03-10T18:33:48.500Z,2.07
2023-03-10T18:36:17.023Z,2.06
2023-03-10T18:38:44.033Z,2.04
2023-03-10T18:41:10.481Z,2.05
2023-03-10T18:43:37.150Z,2.03
2023-03-10T18:46:03.598Z,2.00
2023-03-10T18:48:30.088Z,2.04
2023-03-10T18:50:57.410Z,2.06
2023-03-10T18:53:24.636Z,2.06
2023-03-10T18:55:50.978Z,2.07
2023-03-10T18:58:18.751Z,2.09
2023-03-10T19:00:45.164Z,2.14
2023-03-10T19:03:14.860Z,2.09
2023-03-10T19:05:41.345Z,2.06
2023-03-10T19:08:07.904Z,2.10
2023-03-10T19:10:34.327Z,2.12
2023-03-10T19:13:00.722Z,2.08
2023-03-10T19:15:27.078Z,2.03
2023-03-10T19:17:53.469Z,2.07
2023-03-10T19:20:19.820Z,2.13
2023-03-10T19:22:50.845Z,2.14
2023-03-10T19:25:17.631Z,2.16
2023-03-10T19:27:44.043Z,2.17
2023-03-10T19:30:11.550Z,2.17
2023-03-10T19:32:38.622Z,2.22
2023-03-10T19:35:06.633Z,2.24
2023-03-10T19:37:32.897Z,2.22
2023-03-10T19:39:59.231Z,2.16
2023-03-10T19:42:25.677Z,2.18
2023-03-10T19:44:52.036Z,2.13
2023-03-10T19:47:19.258Z,2.18
2023-03-10T19:49:45.609Z,2.20
2023-03-10T19:52:11.945Z,2.25
2023-03-10T19:54:38.277Z,2.30
2023-03-10T19:57:04.712Z,2.30
2023-03-10T19:59:31.212Z,2.32
2023-03-10T20:02:01.491Z,2.34
2023-03-10T20:04:27.897Z,2.41
2023-03-10T20:06:54.296Z,2.39
2023-03-10T20:09:20.640Z,2.39
2023-03-10T20:11:48.447Z,2.42
2023-03-10T20:14:14.839Z,2.44
2023-03-10T20:16:42.918Z,2.44
2023-03-10T20:19:09.236Z,2.47
2023-03-10T20:21:35.616Z,2.52
2023-03-10T20:24:03.414Z,2.52
2023-03-10T20:26:29.806Z,2.53
2023-03-10T20:28:56.224Z,2.60
2023-03-10T20:31:23.050Z,2.60
2023-03-10T20:33:50.180Z,2.60
2023-03-10T20:36:16.510Z,2.58
2023-03-10T20:38:44.203Z,2.56
2023-03-10T20:41:12.582Z,2.58
2023-03-10T20:43:39.911Z,2.60
2023-03-10T20:46:06.572Z,2.61
2023-03-10T20:48:33.354Z,2.52
2023-03-10T20:51:00.267Z,2.55
2023-03-10T20:53:26.614Z,2.55
2023-03-10T20:55:52.975Z,2.53
2023-03-10T20:58:19.568Z,2.52
2023-03-10T21:00:48.678Z,2.49
2023-03-10T21:03:14.958Z,2.50
2023-03-10T21:05:41.292Z,2.50
2023-03-10T21:08:07.712Z,2.49
2023-03-10T21:10:34.943Z,2.51
2023-03-10T21:13:01.270Z,2.49
2023-03-10T21:15:27.591Z,2.48
2023-03-10T21:17:54.133Z,2.53
2023-03-10T21:20:22.028Z,2.59
2023-03-10T21:22:48.766Z,2.74
2023-03-10T21:25:17.236Z,2.76
2023-03-10T21:27:46.251Z,2.70
2023-03-10T21:30:13.448Z,2.74
2023-03-10T21:32:39.960Z,2.76
2023-03-10T21:35:06.812Z,2.77
2023-03-10T21:37:33.111Z,2.78
2023-03-10T21:39:59.397Z,2.82
2023-03-10T21:42:25.670Z,2.84
2023-03-10T21:44:54.260Z,2.85
2023-03-10T21:47:20.916Z,2.86
2023-03-10T21:49:47.264Z,2.88
2023-03-10T21:52:14.048Z,2.91
2023-03-10T21:54:40.732Z,2.97
2023-03-10T21:57:07.195Z,2.97
2023-03-10T21:59:33.483Z,2.99
2023-03-10T22:01:59.745Z,3.02
2023-03-10T22:04:28.012Z,3.04
2023-03-10T22:06:54.344Z,3.05
2023-03-10T22:09:20.778Z,3.04
2023-03-10T22:11:47.200Z,3.02
2023-03-10T22:14:13.602Z,2.97
2023-03-10T22:16:41.185Z,2.95
2023-03-10T22:19:07.486Z,2.96
2023-03-10T22:21:33.797Z,2.95
2023-03-10T22:24:00.181Z,2.96
2023-03-10T22:26:26.632Z,2.97
2023-03-10T22:28:55.217Z,2.97
2023-03-10T22:31:22.299Z,2.98
2023-03-10T22:33:48.841Z,2.96
2023-03-10T22:36:15.245Z,2.92
2023-03-10T22:38:41.537Z,2.85
2023-03-10T22:41:11.663Z,2.84
2023-03-10T22:43:37.999Z,2.81
2023-03-10T22:46:12.098Z,2.81
2023-03-10T22:48:38.686Z,2.80
2023-03-10T22:51:05.781Z,2.82
2023-03-10T22:53:32.248Z,2.83
2023-03-10T22:55:58.610Z,2.82
2023-03-10T22:58:24.939Z,2.85
2023-03-10T23:00:51.332Z,2.85
2023-03-10T23:03:17.719Z,2.88
2023-03-10T23:05:45.178Z,2.97
2023-03-10T23:08:12.079Z,3.01
2023-03-10T23:10:38.462Z,3.00
2023-03-10T23:13:06.274Z,3.01
2023-03-10T23:15:34.138Z,3.00
2023-03-10T23:18:00.981Z,2.99
2023-03-10T23:20:28.758Z,2.99
2023-03-10T23:22:56.548Z,3.03
2023-03-10T23:25:24.984Z,3.08
2023-03-10T23:27:51.325Z,3.11
2023-03-10T23:30:17.916Z,3.12
2023-03-10T23:32:47.335Z,3.13
2023-03-10T23:35:17.720Z,3.14
2023-03-10T23:37:45.912Z,3.15
2023-03-10T23:40:14.456Z,3.14
2023-03-10T23:42:41.677Z,3.10
2023-03-10T23:45:11.245Z,3.02
2023-03-10T23:47:37.667Z,2.98
2023-03-10T23:50:06.304Z,3.00
2023-03-10T23:52:33.037Z,2.99
2023-03-10T23:54:59.664Z,2.98
2023-03-10T23:57:26.263Z,2.98
2023-03-10T23:59:52.881Z,2.99
